Guatay, CA (91931)

4:24 PM PDT on July 26, 2016 (GMT -0700)
Pine valley | | Change Station

Elev 3671 ft 32.84 °N, 116.53 °W | Updated 10 minutes ago

Partly Cloudy
Partly Cloudy
94.3 °F
Feels Like 93 °F
N
6.8
Wind Variable Wind from WNW

Today
High -- | Low -- °F
--% Chance of Precip.
Yesterday
High -- | Low -- °F
Precip. -- in
Pressure 29.78 in
Visibility -9999.0 miles
Clouds
Heat Index 93 °F
Dew Point 57 °F
Humidity 29%
Rainfall 0.00 in
Snow Depth Not available.
5:56 AM 7:48 PM
Waning Gibbous, 50% visible
METAR KCZZ 262252Z AUTO 22016KT 35/14 A2990 RMK AO1 SLP083 T03500144
Pressure 29.78 in
Visibility -9999.0 miles
Clouds
Heat Index 93 °F
Dew Point 57 °F
Humidity 29%
Rainfall 0.00 in
Snow Depth Not available.
5:56 AM 7:48 PM
Waning Gibbous, 50% visible
METAR KCZZ 262252Z AUTO 22016KT 35/14 A2990 RMK AO1 SLP083 T03500144

10-Day Weather Forecast

Almanac

Astronomy

Jul. 26, 2016 Rise Set
Actual Time
Civil Twilight
Nautical Twilight
Astronomical Twilight
Moon
Length of Visible Light
Length of Day
Tomorrow will be .
, % of the Moon is Illuminated

Today's Extremes

State Highs State Lows

Community

WunderPhotos

Upload Photos

1,927,729 photos uploaded!

WunderBlog® & News

Nearby

Air Quality

  Air Quality AQ Index Pollutant
Not available.

Snow Depth

Station Depth Elevation

Earthquake Activity

City Distance Mag. Time & Date
Minimum magnitude displayed is 2.5.

Coastal Water Temperatures

Place Temperature

Stations

Nearby Weather Stations

Station Location Temp. Windchill Dew Point Humidity Wind Precip. Elev Updated Type
                   

Watches & Warnings

There are currently no watches in effect.